Main page
METAR-TAF:

METAR-TAF

Airports :

Gibraltar, Gibraltar

Gibraltar International Airport

latitude: 36-09N, longitude: 005-21W, elevation: 5 m

Current weather observation

The report was made 1 hour and 13 minutes ago, at 19:50 UTC
Wind 6 kt from the West/Southwest
Temperature 15°C
Humidity 77%
Pressure 1029 hPa
Visibility 10 km or more
Few clouds at a height of 2300 ft
Scattered clouds at a height of 25000 ft

METAR: LXGB 201950Z 25006KT 9999 FEW023 SCT250 15/11 Q1029 NOSIG

Time: 22:03 (21:03 UTC)

Forecast

The report was made 4 hours and 38 minutes ago, at 16:25 UTC
Forecast valid from 20 at 18 UTC to 20 at 24 UTC
Wind 12 kt from the West
Visibility 10 km or more
Few clouds at a height of 2500 ft

TAF: LXGB 201625Z 2018/2024 27012KT 9999 FEW025

Weather observations and forecasts of more than 4000 airports (METAR and TAF reports).

The available stations are represented by yellow and red dots on the map.

Hover mouse over dot to see the name of the station.

Then click to see weather observations and forecasts.

To change the map : click on the green buttons with a black cross to zoom in, on the green button with a dash to zoom out, or on the green arrows for adjacent maps.


METAR-TAF: